sensor_id;sensor_type;location;lat;lon;timestamp;pressure;altitude;pressure_sealevel;temperature;humidity
81641;BME280;74020;50.722;-1.944;2024-03-06T00:01:41;101394.40;;;4.73;100.00
81641;BME280;74020;50.722;-1.944;2024-03-06T00:04:06;101393.84;;;5.13;100.00
81641;BME280;74020;50.722;-1.944;2024-03-06T00:06:34;101397.81;;;5.08;100.00
81641;BME280;74020;50.722;-1.944;2024-03-06T00:08:58;101405.29;;;4.71;100.00
81641;BME280;74020;50.722;-1.944;2024-03-06T00:11:22;101406.99;;;4.92;100.00
81641;BME280;74020;50.722;-1.944;2024-03-06T00:13:48;101410.09;;;4.75;100.00
81641;BME280;74020;50.722;-1.944;2024-03-06T00:16:14;101409.05;;;4.97;100.00
81641;BME280;74020;50.722;-1.944;2024-03-06T00:18:39;101404.33;;;5.40;100.00
81641;BME280;74020;50.722;-1.944;2024-03-06T00:21:04;101402.68;;;5.55;99.50
81641;BME280;74020;50.722;-1.944;2024-03-06T00:23:30;101404.75;;;5.50;99.70
81641;BME280;74020;50.722;-1.944;2024-03-06T00:25:56;101404.82;;;5.42;99.23
81641;BME280;74020;50.722;-1.944;2024-03-06T00:28:21;101405.09;;;5.45;99.29
81641;BME280;74020;50.722;-1.944;2024-03-06T00:30:46;101407.47;;;5.25;100.00
81641;BME280;74020;50.722;-1.944;2024-03-06T00:33:11;101407.33;;;5.34;99.07
81641;BME280;74020;50.722;-1.944;2024-03-06T00:35:37;101409.89;;;5.22;100.00
81641;BME280;74020;50.722;-1.944;2024-03-06T00:38:04;101405.73;;;5.55;100.00
81641;BME280;74020;50.722;-1.944;2024-03-06T00:40:28;101404.47;;;5.66;98.93
81641;BME280;74020;50.722;-1.944;2024-03-06T00:42:53;101408.28;;;5.38;99.31
81641;BME280;74020;50.722;-1.944;2024-03-06T00:45:19;101406.87;;;5.55;99.60
81641;BME280;74020;50.722;-1.944;2024-03-06T00:47:45;101412.73;;;5.52;99.42
81641;BME280;74020;50.722;-1.944;2024-03-06T00:50:10;101418.12;;;5.25;98.59
81641;BME280;74020;50.722;-1.944;2024-03-06T00:52:36;101423.40;;;4.91;100.00
81641;BME280;74020;50.722;-1.944;2024-03-06T00:55:01;101427.71;;;4.71;100.00
81641;BME280;74020;50.722;-1.944;2024-03-06T00:57:26;101426.28;;;5.17;100.00
81641;BME280;74020;50.722;-1.944;2024-03-06T00:59:51;101424.47;;;5.15;100.00
81641;BME280;74020;50.722;-1.944;2024-03-06T01:02:17;101427.65;;;5.29;100.00
81641;BME280;74020;50.722;-1.944;2024-03-06T01:04:42;101428.23;;;5.50;100.00
81641;BME280;74020;50.722;-1.944;2024-03-06T01:07:08;101431.87;;;5.35;100.00
81641;BME280;74020;50.722;-1.944;2024-03-06T01:09:33;101432.84;;;5.45;98.88
81641;BME280;74020;50.722;-1.944;2024-03-06T01:11:59;101434.59;;;5.44;99.73
81641;BME280;74020;50.722;-1.944;2024-03-06T01:14:25;101433.45;;;5.69;97.79
81641;BME280;74020;50.722;-1.944;2024-03-06T01:16:49;101431.00;;;5.71;96.31
81641;BME280;74020;50.722;-1.944;2024-03-06T01:19:15;101431.29;;;5.61;97.07
81641;BME280;74020;50.722;-1.944;2024-03-06T01:21:40;101433.27;;;5.81;95.58
81641;BME280;74020;50.722;-1.944;2024-03-06T01:24:07;101434.86;;;5.85;94.22
81641;BME280;74020;50.722;-1.944;2024-03-06T01:26:32;101433.52;;;5.77;94.32
81641;BME280;74020;50.722;-1.944;2024-03-06T01:28:57;101431.00;;;5.73;93.50
81641;BME280;74020;50.722;-1.944;2024-03-06T01:31:22;101430.03;;;5.71;94.26
81641;BME280;74020;50.722;-1.944;2024-03-06T01:33:50;101430.17;;;5.55;94.79
81641;BME280;74020;50.722;-1.944;2024-03-06T01:36:13;101430.79;;;5.37;95.44
81641;BME280;74020;50.722;-1.944;2024-03-06T01:38:39;101429.58;;;5.35;97.22
81641;BME280;74020;50.722;-1.944;2024-03-06T01:41:04;101434.01;;;4.81;97.89
81641;BME280;74020;50.722;-1.944;2024-03-06T01:43:37;101431.03;;;4.50;100.00
81641;BME280;74020;50.722;-1.944;2024-03-06T01:45:56;101432.19;;;4.69;100.00
81641;BME280;74020;50.722;-1.944;2024-03-06T01:48:23;101431.39;;;5.12;100.00
81641;BME280;74020;50.722;-1.944;2024-03-06T01:50:46;101431.27;;;5.32;98.51
81641;BME280;74020;50.722;-1.944;2024-03-06T01:53:12;101431.38;;;5.30;98.36
81641;BME280;74020;50.722;-1.944;2024-03-06T01:55:38;101429.34;;;5.39;96.97
81641;BME280;74020;50.722;-1.944;2024-03-06T01:58:04;101431.95;;;4.89;97.30
81641;BME280;74020;50.722;-1.944;2024-03-06T02:00:29;101431.50;;;5.01;100.00
81641;BME280;74020;50.722;-1.944;2024-03-06T02:02:55;101429.86;;;5.27;98.73
81641;BME280;74020;50.722;-1.944;2024-03-06T02:05:20;101429.21;;;5.42;96.69
81641;BME280;74020;50.722;-1.944;2024-03-06T02:07:47;101424.61;;;5.61;94.93
81641;BME280;74020;50.722;-1.944;2024-03-06T02:10:11;101426.22;;;5.64;94.25
81641;BME280;74020;50.722;-1.944;2024-03-06T02:12:37;101427.52;;;5.57;93.87
81641;BME280;74020;50.722;-1.944;2024-03-06T02:15:03;101423.51;;;5.64;94.24
81641;BME280;74020;50.722;-1.944;2024-03-06T02:17:28;101423.95;;;5.68;94.42
81641;BME280;74020;50.722;-1.944;2024-03-06T02:19:54;101425.02;;;5.69;94.31
81641;BME280;74020;50.722;-1.944;2024-03-06T02:22:19;101426.93;;;5.66;94.84
81641;BME280;74020;50.722;-1.944;2024-03-06T02:24:47;101424.72;;;5.75;94.25
81641;BME280;74020;50.722;-1.944;2024-03-06T02:27:10;101422.39;;;5.62;92.53
81641;BME280;74020;50.722;-1.944;2024-03-06T02:29:35;101426.36;;;5.36;94.04
81641;BME280;74020;50.722;-1.944;2024-03-06T02:32:01;101427.21;;;5.32;97.67
81641;BME280;74020;50.722;-1.944;2024-03-06T02:34:26;101426.35;;;5.22;98.20
81641;BME280;74020;50.722;-1.944;2024-03-06T02:36:52;101429.55;;;4.73;99.69
81641;BME280;74020;50.722;-1.944;2024-03-06T02:39:18;101426.22;;;5.02;100.00
81641;BME280;74020;50.722;-1.944;2024-03-06T02:41:43;101424.39;;;4.68;100.00
81641;BME280;74020;50.722;-1.944;2024-03-06T02:44:09;101423.22;;;4.56;100.00
81641;BME280;74020;50.722;-1.944;2024-03-06T02:46:34;101417.62;;;4.23;100.00
81641;BME280;74020;50.722;-1.944;2024-03-06T02:49:00;101417.66;;;4.85;100.00
81641;BME280;74020;50.722;-1.944;2024-03-06T02:51:26;101421.53;;;4.73;99.32
81641;BME280;74020;50.722;-1.944;2024-03-06T02:53:52;101420.26;;;4.30;100.00
81641;BME280;74020;50.722;-1.944;2024-03-06T02:56:17;101419.67;;;3.95;100.00
81641;BME280;74020;50.722;-1.944;2024-03-06T02:58:43;101417.17;;;3.89;100.00
81641;BME280;74020;50.722;-1.944;2024-03-06T03:01:08;101414.30;;;4.42;100.00
81641;BME280;74020;50.722;-1.944;2024-03-06T03:03:34;101415.83;;;4.73;100.00
81641;BME280;74020;50.722;-1.944;2024-03-06T03:05:59;101413.82;;;4.70;100.00
81641;BME280;74020;50.722;-1.944;2024-03-06T03:08:25;101408.84;;;4.89;98.67
81641;BME280;74020;50.722;-1.944;2024-03-06T03:10:50;101408.32;;;4.71;97.89
81641;BME280;74020;50.722;-1.944;2024-03-06T03:13:16;101403.22;;;4.49;97.80
81641;BME280;74020;50.722;-1.944;2024-03-06T03:15:41;101400.22;;;4.29;98.56
81641;BME280;74020;50.722;-1.944;2024-03-06T03:18:07;101401.04;;;4.26;100.00
81641;BME280;74020;50.722;-1.944;2024-03-06T03:20:33;101401.32;;;4.46;100.00
81641;BME280;74020;50.722;-1.944;2024-03-06T03:22:59;101401.94;;;4.45;100.00
81641;BME280;74020;50.722;-1.944;2024-03-06T03:25:24;101399.82;;;4.56;99.33
81641;BME280;74020;50.722;-1.944;2024-03-06T03:27:50;101403.04;;;4.69;98.25
81641;BME280;74020;50.722;-1.944;2024-03-06T03:30:16;101404.01;;;4.47;98.87
81641;BME280;74020;50.722;-1.944;2024-03-06T03:32:41;101404.20;;;4.57;100.00
81641;BME280;74020;50.722;-1.944;2024-03-06T03:37:33;101399.52;;;4.23;100.00
81641;BME280;74020;50.722;-1.944;2024-03-06T03:39:58;101400.04;;;4.48;100.00
81641;BME280;74020;50.722;-1.944;2024-03-06T03:42:24;101393.06;;;4.05;100.00
81641;BME280;74020;50.722;-1.944;2024-03-06T03:44:49;101391.95;;;4.31;100.00
81641;BME280;74020;50.722;-1.944;2024-03-06T03:47:15;101394.49;;;3.94;100.00
81641;BME280;74020;50.722;-1.944;2024-03-06T03:49:41;101399.85;;;3.94;100.00
81641;BME280;74020;50.722;-1.944;2024-03-06T03:52:06;101404.25;;;3.67;100.00
81641;BME280;74020;50.722;-1.944;2024-03-06T03:54:32;101402.89;;;3.87;100.00
81641;BME280;74020;50.722;-1.944;2024-03-06T03:56:57;101405.38;;;4.26;100.00
81641;BME280;74020;50.722;-1.944;2024-03-06T03:59:22;101405.98;;;4.20;100.00
81641;BME280;74020;50.722;-1.944;2024-03-06T04:01:48;101406.94;;;3.78;100.00
81641;BME280;74020;50.722;-1.944;2024-03-06T04:04:13;101406.70;;;3.51;100.00
81641;BME280;74020;50.722;-1.944;2024-03-06T04:06:38;101409.39;;;4.19;100.00
81641;BME280;74020;50.722;-1.944;2024-03-06T04:09:04;101410.22;;;4.49;100.00
81641;BME280;74020;50.722;-1.944;2024-03-06T04:11:30;101408.14;;;3.78;100.00
81641;BME280;74020;50.722;-1.944;2024-03-06T04:13:55;101408.48;;;4.07;100.00
81641;BME280;74020;50.722;-1.944;2024-03-06T04:16:20;101412.61;;;4.45;99.73
81641;BME280;74020;50.722;-1.944;2024-03-06T04:21:12;101412.30;;;4.73;94.85
81641;BME280;74020;50.722;-1.944;2024-03-06T04:23:37;101415.02;;;4.76;94.18
81641;BME280;74020;50.722;-1.944;2024-03-06T04:26:03;101414.60;;;4.69;94.81
81641;BME280;74020;50.722;-1.944;2024-03-06T04:28:28;101415.68;;;4.32;94.87
81641;BME280;74020;50.722;-1.944;2024-03-06T04:30:54;101421.18;;;4.02;98.35
81641;BME280;74020;50.722;-1.944;2024-03-06T04:33:21;101422.84;;;3.76;98.13
81641;BME280;74020;50.722;-1.944;2024-03-06T04:35:45;101424.09;;;3.51;100.00
81641;BME280;74020;50.722;-1.944;2024-03-06T04:38:11;101421.17;;;4.16;99.49
81641;BME280;74020;50.722;-1.944;2024-03-06T04:40:37;101425.44;;;4.38;97.63
81641;BME280;74020;50.722;-1.944;2024-03-06T04:43:02;101425.46;;;4.37;96.28
81641;BME280;74020;50.722;-1.944;2024-03-06T04:45:28;101429.20;;;3.99;97.47
81641;BME280;74020;50.722;-1.944;2024-03-06T04:47:54;101428.44;;;3.75;100.00
81641;BME280;74020;50.722;-1.944;2024-03-06T04:50:19;101433.62;;;4.04;100.00
81641;BME280;74020;50.722;-1.944;2024-03-06T04:52:45;101437.32;;;4.10;98.72
81641;BME280;74020;50.722;-1.944;2024-03-06T04:55:11;101440.72;;;3.43;100.00
81641;BME280;74020;50.722;-1.944;2024-03-06T04:57:37;101436.33;;;3.97;100.00
81641;BME280;74020;50.722;-1.944;2024-03-06T05:00:02;101437.78;;;3.84;99.73
81641;BME280;74020;50.722;-1.944;2024-03-06T05:02:28;101439.08;;;3.66;100.00
81641;BME280;74020;50.722;-1.944;2024-03-06T05:04:53;101439.84;;;3.98;100.00
81641;BME280;74020;50.722;-1.944;2024-03-06T05:07:19;101443.05;;;3.97;97.94
81641;BME280;74020;50.722;-1.944;2024-03-06T05:09:46;101445.80;;;3.40;100.00
81641;BME280;74020;50.722;-1.944;2024-03-06T05:12:10;101449.94;;;3.17;100.00
81641;BME280;74020;50.722;-1.944;2024-03-06T05:14:36;101447.20;;;3.71;100.00
81641;BME280;74020;50.722;-1.944;2024-03-06T05:17:01;101449.28;;;4.08;100.00
81641;BME280;74020;50.722;-1.944;2024-03-06T05:19:27;101447.19;;;4.35;99.00
81641;BME280;74020;50.722;-1.944;2024-03-06T05:21:53;101449.50;;;3.83;97.37
81641;BME280;74020;50.722;-1.944;2024-03-06T05:24:18;101455.10;;;3.96;99.40
81641;BME280;74020;50.722;-1.944;2024-03-06T05:26:43;101452.88;;;4.35;97.93
81641;BME280;74020;50.722;-1.944;2024-03-06T05:29:09;101457.22;;;4.57;96.54
81641;BME280;74020;50.722;-1.944;2024-03-06T05:31:35;101458.89;;;4.03;96.97
81641;BME280;74020;50.722;-1.944;2024-03-06T05:34:01;101458.41;;;3.82;98.77
81641;BME280;74020;50.722;-1.944;2024-03-06T05:36:26;101461.23;;;3.52;100.00
81641;BME280;74020;50.722;-1.944;2024-03-06T05:38:52;101464.25;;;3.41;100.00
81641;BME280;74020;50.722;-1.944;2024-03-06T05:41:18;101466.77;;;3.59;100.00
81641;BME280;74020;50.722;-1.944;2024-03-06T05:43:43;101463.52;;;3.77;100.00
81641;BME280;74020;50.722;-1.944;2024-03-06T05:46:09;101466.83;;;3.47;100.00
81641;BME280;74020;50.722;-1.944;2024-03-06T05:48:34;101468.53;;;3.24;100.00
81641;BME280;74020;50.722;-1.944;2024-03-06T05:51:00;101471.89;;;3.68;100.00
81641;BME280;74020;50.722;-1.944;2024-03-06T05:53:26;101472.63;;;3.58;100.00
81641;BME280;74020;50.722;-1.944;2024-03-06T05:55:52;101472.88;;;3.75;100.00
81641;BME280;74020;50.722;-1.944;2024-03-06T05:58:17;101472.79;;;3.54;99.76
81641;BME280;74020;50.722;-1.944;2024-03-06T06:00:43;101468.68;;;3.87;100.00
81641;BME280;74020;50.722;-1.944;2024-03-06T06:03:08;101468.21;;;3.90;98.85
81641;BME280;74020;50.722;-1.944;2024-03-06T06:05:34;101469.07;;;3.65;97.43
81641;BME280;74020;50.722;-1.944;2024-03-06T06:07:59;101469.47;;;3.27;98.16
81641;BME280;74020;50.722;-1.944;2024-03-06T06:10:25;101468.35;;;3.62;99.74
81641;BME280;74020;50.722;-1.944;2024-03-06T06:12:51;101470.26;;;3.68;98.81
81641;BME280;74020;50.722;-1.944;2024-03-06T06:15:16;101468.42;;;3.76;98.03
81641;BME280;74020;50.722;-1.944;2024-03-06T06:17:42;101474.65;;;3.49;96.35
81641;BME280;74020;50.722;-1.944;2024-03-06T06:20:10;101473.98;;;3.51;97.48
81641;BME280;74020;50.722;-1.944;2024-03-06T06:22:33;101473.56;;;3.41;98.54
81641;BME280;74020;50.722;-1.944;2024-03-06T06:24:59;101471.91;;;3.63;97.11
81641;BME280;74020;50.722;-1.944;2024-03-06T06:27:24;101471.33;;;3.66;97.15
81641;BME280;74020;50.722;-1.944;2024-03-06T06:29:49;101468.56;;;3.77;97.02
81641;BME280;74020;50.722;-1.944;2024-03-06T06:32:15;101473.68;;;3.90;94.96
81641;BME280;74020;50.722;-1.944;2024-03-06T06:34:41;101477.60;;;4.09;94.56
81641;BME280;74020;50.722;-1.944;2024-03-06T06:37:06;101475.60;;;3.99;94.02
81641;BME280;74020;50.722;-1.944;2024-03-06T06:39:32;101474.85;;;3.81;96.09
81641;BME280;74020;50.722;-1.944;2024-03-06T06:41:57;101478.60;;;3.69;96.22
81641;BME280;74020;50.722;-1.944;2024-03-06T06:44:23;101483.92;;;3.64;97.04
81641;BME280;74020;50.722;-1.944;2024-03-06T06:46:49;101491.17;;;3.45;97.16
81641;BME280;74020;50.722;-1.944;2024-03-06T06:49:14;101497.05;;;3.34;98.48
81641;BME280;74020;50.722;-1.944;2024-03-06T06:51:39;101508.67;;;3.22;100.00
81641;BME280;74020;50.722;-1.944;2024-03-06T06:54:05;101511.49;;;3.22;100.00
81641;BME280;74020;50.722;-1.944;2024-03-06T06:56:31;101507.20;;;3.28;100.00
81641;BME280;74020;50.722;-1.944;2024-03-06T06:58:56;101507.96;;;3.57;100.00
81641;BME280;74020;50.722;-1.944;2024-03-06T07:01:21;101502.33;;;3.53;100.00
81641;BME280;74020;50.722;-1.944;2024-03-06T07:03:47;101503.24;;;3.05;100.00
81641;BME280;74020;50.722;-1.944;2024-03-06T07:06:13;101502.18;;;3.39;100.00
81641;BME280;74020;50.722;-1.944;2024-03-06T07:08:38;101509.43;;;3.22;99.72
81641;BME280;74020;50.722;-1.944;2024-03-06T07:11:04;101517.74;;;3.15;100.00
81641;BME280;74020;50.722;-1.944;2024-03-06T07:13:29;101520.90;;;2.99;100.00
81641;BME280;74020;50.722;-1.944;2024-03-06T07:15:54;101524.27;;;3.07;100.00
81641;BME280;74020;50.722;-1.944;2024-03-06T07:18:20;101520.78;;;3.50;100.00
81641;BME280;74020;50.722;-1.944;2024-03-06T07:20:46;101518.49;;;3.67;100.00
81641;BME280;74020;50.722;-1.944;2024-03-06T07:23:11;101517.05;;;3.46;100.00
81641;BME280;74020;50.722;-1.944;2024-03-06T07:25:36;101518.57;;;3.23;100.00
81641;BME280;74020;50.722;-1.944;2024-03-06T07:28:02;101520.40;;;3.37;100.00
81641;BME280;74020;50.722;-1.944;2024-03-06T07:30:27;101519.34;;;3.64;100.00
81641;BME280;74020;50.722;-1.944;2024-03-06T07:32:52;101519.14;;;3.67;100.00
81641;BME280;74020;50.722;-1.944;2024-03-06T07:35:18;101520.17;;;3.95;100.00
81641;BME280;74020;50.722;-1.944;2024-03-06T07:37:43;101518.18;;;4.07;100.00
81641;BME280;74020;50.722;-1.944;2024-03-06T07:40:09;101522.76;;;4.10;100.00
81641;BME280;74020;50.722;-1.944;2024-03-06T07:42:34;101532.00;;;4.26;100.00
81641;BME280;74020;50.722;-1.944;2024-03-06T07:45:00;101536.99;;;4.12;99.55
81641;BME280;74020;50.722;-1.944;2024-03-06T07:47:25;101539.17;;;4.38;100.00
81641;BME280;74020;50.722;-1.944;2024-03-06T07:49:53;101539.86;;;4.59;99.08
81641;BME280;74020;50.722;-1.944;2024-03-06T07:52:16;101545.26;;;4.67;98.69
81641;BME280;74020;50.722;-1.944;2024-03-06T07:54:42;101544.57;;;4.87;98.14
81641;BME280;74020;50.722;-1.944;2024-03-06T07:57:07;101545.49;;;4.91;97.81
81641;BME280;74020;50.722;-1.944;2024-03-06T07:59:33;101546.89;;;4.67;96.97
81641;BME280;74020;50.722;-1.944;2024-03-06T08:01:58;101539.60;;;5.10;94.50
81641;BME280;74020;50.722;-1.944;2024-03-06T08:04:24;101538.18;;;4.68;97.26
81641;BME280;74020;50.722;-1.944;2024-03-06T08:06:50;101543.65;;;4.99;97.77
81641;BME280;74020;50.722;-1.944;2024-03-06T08:09:15;101542.60;;;5.28;95.41
81641;BME280;74020;50.722;-1.944;2024-03-06T08:11:41;101549.13;;;5.55;93.65
81641;BME280;74020;50.722;-1.944;2024-03-06T08:14:07;101547.02;;;5.72;92.59
81641;BME280;74020;50.722;-1.944;2024-03-06T08:16:32;101550.08;;;5.71;90.96
81641;BME280;74020;50.722;-1.944;2024-03-06T08:18:58;101548.60;;;5.70;91.22
81641;BME280;74020;50.722;-1.944;2024-03-06T08:21:23;101548.37;;;5.78;91.98
81641;BME280;74020;50.722;-1.944;2024-03-06T08:23:48;101545.83;;;5.77;91.51
81641;BME280;74020;50.722;-1.944;2024-03-06T08:26:13;101546.92;;;5.79;92.76
81641;BME280;74020;50.722;-1.944;2024-03-06T08:28:39;101546.70;;;5.77;94.37
81641;BME280;74020;50.722;-1.944;2024-03-06T08:31:04;101546.58;;;5.92;94.66
81641;BME280;74020;50.722;-1.944;2024-03-06T08:33:30;101549.23;;;5.85;94.26
81641;BME280;74020;50.722;-1.944;2024-03-06T08:35:55;101552.88;;;6.14;96.24
81641;BME280;74020;50.722;-1.944;2024-03-06T08:38:22;101548.22;;;6.36;95.94
81641;BME280;74020;50.722;-1.944;2024-03-06T08:40:46;101551.11;;;6.49;95.38
81641;BME280;74020;50.722;-1.944;2024-03-06T08:43:11;101551.80;;;6.50;94.94
81641;BME280;74020;50.722;-1.944;2024-03-06T08:45:37;101554.13;;;6.59;95.30
81641;BME280;74020;50.722;-1.944;2024-03-06T08:48:02;101556.75;;;6.50;95.77
81641;BME280;74020;50.722;-1.944;2024-03-06T08:50:27;101555.07;;;6.54;96.83
81641;BME280;74020;50.722;-1.944;2024-03-06T08:52:53;101555.09;;;6.58;96.98
81641;BME280;74020;50.722;-1.944;2024-03-06T08:55:19;101557.92;;;6.58;96.84
81641;BME280;74020;50.722;-1.944;2024-03-06T08:57:44;101559.47;;;6.83;96.43
81641;BME280;74020;50.722;-1.944;2024-03-06T09:00:10;101561.51;;;6.90;96.30
81641;BME280;74020;50.722;-1.944;2024-03-06T09:02:35;101561.14;;;7.08;95.37
81641;BME280;74020;50.722;-1.944;2024-03-06T09:05:00;101561.22;;;7.25;94.55
81641;BME280;74020;50.722;-1.944;2024-03-06T09:07:26;101567.24;;;7.30;94.39
81641;BME280;74020;50.722;-1.944;2024-03-06T09:09:51;101567.99;;;7.31;93.53
81641;BME280;74020;50.722;-1.944;2024-03-06T09:12:17;101568.39;;;7.26;93.48
81641;BME280;74020;50.722;-1.944;2024-03-06T09:14:42;101572.63;;;7.50;93.89
81641;BME280;74020;50.722;-1.944;2024-03-06T09:17:08;101571.16;;;7.54;94.56
81641;BME280;74020;50.722;-1.944;2024-03-06T09:19:33;101568.49;;;7.76;94.06
81641;BME280;74020;50.722;-1.944;2024-03-06T09:22:00;101571.81;;;7.71;94.11
81641;BME280;74020;50.722;-1.944;2024-03-06T09:24:25;101571.54;;;7.91;94.30
81641;BME280;74020;50.722;-1.944;2024-03-06T09:26:50;101574.11;;;8.07;93.06
81641;BME280;74020;50.722;-1.944;2024-03-06T09:29:15;101572.85;;;8.07;94.25
81641;BME280;74020;50.722;-1.944;2024-03-06T09:31:40;101573.07;;;8.09;94.83
81641;BME280;74020;50.722;-1.944;2024-03-06T09:34:06;101572.95;;;8.28;94.46
81641;BME280;74020;50.722;-1.944;2024-03-06T09:36:31;101575.18;;;8.28;94.01
81641;BME280;74020;50.722;-1.944;2024-03-06T09:38:56;101577.04;;;8.54;93.45
81641;BME280;74020;50.722;-1.944;2024-03-06T09:41:22;101578.75;;;8.47;94.85
81641;BME280;74020;50.722;-1.944;2024-03-06T09:43:47;101581.33;;;8.55;92.74
81641;BME280;74020;50.722;-1.944;2024-03-06T09:46:13;101586.08;;;8.58;93.41
81641;BME280;74020;50.722;-1.944;2024-03-06T09:48:44;101588.31;;;8.83;91.99
81641;BME280;74020;50.722;-1.944;2024-03-06T09:51:04;101591.39;;;8.81;91.71
81641;BME280;74020;50.722;-1.944;2024-03-06T09:53:29;101593.03;;;8.99;91.49
81641;BME280;74020;50.722;-1.944;2024-03-06T09:55:56;101596.73;;;8.92;91.91
81641;BME280;74020;50.722;-1.944;2024-03-06T09:58:21;101599.00;;;9.08;90.74
81641;BME280;74020;50.722;-1.944;2024-03-06T10:00:46;101599.94;;;8.67;91.45
81641;BME280;74020;50.722;-1.944;2024-03-06T10:03:11;101601.55;;;8.81;91.58
81641;BME280;74020;50.722;-1.944;2024-03-06T10:05:36;101602.21;;;8.77;90.69
81641;BME280;74020;50.722;-1.944;2024-03-06T10:08:01;101602.70;;;8.74;90.87
81641;BME280;74020;50.722;-1.944;2024-03-06T10:10:27;101605.19;;;8.78;92.62
81641;BME280;74020;50.722;-1.944;2024-03-06T10:12:52;101606.01;;;8.70;91.57
81641;BME280;74020;50.722;-1.944;2024-03-06T10:15:17;101606.78;;;8.81;91.94
81641;BME280;74020;50.722;-1.944;2024-03-06T10:17:43;101605.93;;;8.92;93.30
81641;BME280;74020;50.722;-1.944;2024-03-06T10:20:19;101604.85;;;8.90;91.58
81641;BME280;74020;50.722;-1.944;2024-03-06T10:22:34;101603.58;;;9.05;92.07
81641;BME280;74020;50.722;-1.944;2024-03-06T10:24:59;101601.78;;;9.09;92.16
81641;BME280;74020;50.722;-1.944;2024-03-06T10:27:25;101601.49;;;9.16;93.52
81641;BME280;74020;50.722;-1.944;2024-03-06T10:30:01;101607.13;;;9.06;92.62
81641;BME280;74020;50.722;-1.944;2024-03-06T10:32:17;101608.29;;;8.87;93.84
81641;BME280;74020;50.722;-1.944;2024-03-06T10:34:41;101610.48;;;9.07;93.35
81641;BME280;74020;50.722;-1.944;2024-03-06T10:37:06;101610.29;;;8.86;94.42
81641;BME280;74020;50.722;-1.944;2024-03-06T10:39:33;101613.13;;;9.07;94.04
81641;BME280;74020;50.722;-1.944;2024-03-06T10:41:57;101614.90;;;8.68;96.13
81641;BME280;74020;50.722;-1.944;2024-03-06T10:44:24;101616.54;;;8.69;97.49
81641;BME280;74020;50.722;-1.944;2024-03-06T10:46:50;101619.46;;;8.78;98.41
81641;BME280;74020;50.722;-1.944;2024-03-06T10:49:13;101620.54;;;9.01;98.29
81641;BME280;74020;50.722;-1.944;2024-03-06T10:51:40;101621.03;;;9.07;97.83
81641;BME280;74020;50.722;-1.944;2024-03-06T10:54:03;101624.32;;;8.81;99.35
81641;BME280;74020;50.722;-1.944;2024-03-06T10:56:28;101624.41;;;8.86;99.22
81641;BME280;74020;50.722;-1.944;2024-03-06T10:58:55;101630.84;;;9.05;98.65
81641;BME280;74020;50.722;-1.944;2024-03-06T11:01:20;101630.92;;;8.98;100.00
81641;BME280;74020;50.722;-1.944;2024-03-06T11:03:45;101633.94;;;9.23;99.60
81641;BME280;74020;50.722;-1.944;2024-03-06T11:06:10;101636.28;;;9.12;100.00
81641;BME280;74020;50.722;-1.944;2024-03-06T11:08:36;101638.78;;;9.17;99.02
81641;BME280;74020;50.722;-1.944;2024-03-06T11:11:19;101639.88;;;9.22;100.00
81641;BME280;74020;50.722;-1.944;2024-03-06T11:13:31;101634.58;;;8.96;100.00
81641;BME280;74020;50.722;-1.944;2024-03-06T11:15:53;101635.29;;;9.11;99.72
81641;BME280;74020;50.722;-1.944;2024-03-06T11:20:44;101640.28;;;9.09;100.00
81641;BME280;74020;50.722;-1.944;2024-03-06T11:23:09;101640.82;;;9.04;100.00
81641;BME280;74020;50.722;-1.944;2024-03-06T11:28:04;101643.87;;;9.39;100.00
81641;BME280;74020;50.722;-1.944;2024-03-06T11:30:26;101646.90;;;9.21;100.00
81641;BME280;74020;50.722;-1.944;2024-03-06T11:32:59;101645.66;;;9.55;100.00
81641;BME280;74020;50.722;-1.944;2024-03-06T11:35:18;101645.11;;;9.54;99.48
81641;BME280;74020;50.722;-1.944;2024-03-06T11:37:46;101646.24;;;9.48;98.24
81641;BME280;74020;50.722;-1.944;2024-03-06T11:40:10;101648.76;;;9.43;97.52
81641;BME280;74020;50.722;-1.944;2024-03-06T11:42:33;101649.68;;;9.65;98.75
81641;BME280;74020;50.722;-1.944;2024-03-06T11:44:57;101649.18;;;9.65;98.12
81641;BME280;74020;50.722;-1.944;2024-03-06T11:47:23;101656.71;;;9.52;100.00
81641;BME280;74020;50.722;-1.944;2024-03-06T11:49:48;101654.14;;;9.61;99.39
81641;BME280;74020;50.722;-1.944;2024-03-06T11:52:13;101656.48;;;9.63;100.00
81641;BME280;74020;50.722;-1.944;2024-03-06T11:54:38;101654.68;;;9.78;99.51
81641;BME280;74020;50.722;-1.944;2024-03-06T11:57:05;101657.16;;;10.14;100.00
81641;BME280;74020;50.722;-1.944;2024-03-06T11:59:30;101658.54;;;9.98;98.63
81641;BME280;74020;50.722;-1.944;2024-03-06T12:01:55;101655.52;;;10.34;96.39
81641;BME280;74020;50.722;-1.944;2024-03-06T12:04:20;101653.78;;;10.42;95.58
81641;BME280;74020;50.722;-1.944;2024-03-06T12:06:44;101651.57;;;10.36;96.05
81641;BME280;74020;50.722;-1.944;2024-03-06T12:09:10;101653.63;;;10.39;93.51
81641;BME280;74020;50.722;-1.944;2024-03-06T12:11:36;101651.43;;;10.85;93.97
81641;BME280;74020;50.722;-1.944;2024-03-06T12:14:00;101654.06;;;11.10;92.35
81641;BME280;74020;50.722;-1.944;2024-03-06T12:16:27;101654.49;;;11.44;91.72
81641;BME280;74020;50.722;-1.944;2024-03-06T12:18:56;101651.70;;;11.16;89.90
81641;BME280;74020;50.722;-1.944;2024-03-06T12:21:17;101651.75;;;11.54;89.44
81641;BME280;74020;50.722;-1.944;2024-03-06T12:23:42;101653.29;;;11.44;88.03
81641;BME280;74020;50.722;-1.944;2024-03-06T12:26:08;101648.52;;;11.93;85.34
81641;BME280;74020;50.722;-1.944;2024-03-06T12:28:32;101654.28;;;11.78;90.02
81641;BME280;74020;50.722;-1.944;2024-03-06T12:30:58;101650.03;;;11.92;83.90
81641;BME280;74020;50.722;-1.944;2024-03-06T12:33:23;101650.97;;;11.87;86.15
81641;BME280;74020;50.722;-1.944;2024-03-06T12:35:48;101651.36;;;11.33;87.67
81641;BME280;74020;50.722;-1.944;2024-03-06T12:38:14;101649.68;;;11.43;90.40
81641;BME280;74020;50.722;-1.944;2024-03-06T12:40:40;101647.79;;;12.05;88.83
81641;BME280;74020;50.722;-1.944;2024-03-06T12:43:05;101645.09;;;11.96;86.09
81641;BME280;74020;50.722;-1.944;2024-03-06T12:45:30;101648.31;;;12.07;86.51